sensor_id;sensor_type;location;lat;lon;timestamp;temperature;humidity
60353;DHT22;46196;52.970;6.954;2023-04-08T00:01:08;4.70;99.90
60353;DHT22;46196;52.970;6.954;2023-04-08T00:03:34;4.10;99.90
60353;DHT22;46196;52.970;6.954;2023-04-08T00:06:00;6.90;99.90
60353;DHT22;46196;52.970;6.954;2023-04-08T00:08:27;5.40;99.90
60353;DHT22;46196;52.970;6.954;2023-04-08T00:10:53;4.40;99.90
60353;DHT22;46196;52.970;6.954;2023-04-08T00:13:19;3.90;99.90
60353;DHT22;46196;52.970;6.954;2023-04-08T00:15:45;4.90;99.90
60353;DHT22;46196;52.970;6.954;2023-04-08T00:18:12;3.90;99.90
60353;DHT22;46196;52.970;6.954;2023-04-08T00:20:38;4.60;99.90
60353;DHT22;46196;52.970;6.954;2023-04-08T00:23:04;4.00;99.90
60353;DHT22;46196;52.970;6.954;2023-04-08T00:25:30;4.40;99.90
60353;DHT22;46196;52.970;6.954;2023-04-08T00:27:55;5.10;99.90
60353;DHT22;46196;52.970;6.954;2023-04-08T00:30:21;4.40;99.90
60353;DHT22;46196;52.970;6.954;2023-04-08T00:32:47;5.60;99.90
60353;DHT22;46196;52.970;6.954;2023-04-08T00:35:13;4.30;99.90
60353;DHT22;46196;52.970;6.954;2023-04-08T00:37:39;3.80;99.90
60353;DHT22;46196;52.970;6.954;2023-04-08T00:40:06;6.50;99.90
60353;DHT22;46196;52.970;6.954;2023-04-08T00:42:32;2.90;99.90
60353;DHT22;46196;52.970;6.954;2023-04-08T00:44:57;6.30;99.90
60353;DHT22;46196;52.970;6.954;2023-04-08T00:47:23;7.00;99.90
60353;DHT22;46196;52.970;6.954;2023-04-08T00:49:50;4.20;99.90
60353;DHT22;46196;52.970;6.954;2023-04-08T00:52:16;3.50;99.90
60353;DHT22;46196;52.970;6.954;2023-04-08T00:54:42;4.50;99.90
60353;DHT22;46196;52.970;6.954;2023-04-08T00:57:08;5.30;99.90
60353;DHT22;46196;52.970;6.954;2023-04-08T00:59:34;4.90;99.90
60353;DHT22;46196;52.970;6.954;2023-04-08T01:05:06;3.00;99.90
60353;DHT22;46196;52.970;6.954;2023-04-08T01:07:46;3.90;99.90
60353;DHT22;46196;52.970;6.954;2023-04-08T01:12:48;2.20;99.90
60353;DHT22;46196;52.970;6.954;2023-04-08T01:15:15;2.90;99.90
60353;DHT22;46196;52.970;6.954;2023-04-08T01:17:42;3.20;99.90
60353;DHT22;46196;52.970;6.954;2023-04-08T01:20:09;3.90;99.90
60353;DHT22;46196;52.970;6.954;2023-04-08T01:25:25;2.60;99.90
60353;DHT22;46196;52.970;6.954;2023-04-08T01:27:53;2.80;99.90
60353;DHT22;46196;52.970;6.954;2023-04-08T01:30:23;4.30;99.90
60353;DHT22;46196;52.970;6.954;2023-04-08T01:32:51;3.80;99.90
60353;DHT22;46196;52.970;6.954;2023-04-08T01:35:18;2.40;99.90
60353;DHT22;46196;52.970;6.954;2023-04-08T01:37:46;3.70;99.90
60353;DHT22;46196;52.970;6.954;2023-04-08T01:40:14;3.70;99.90
60353;DHT22;46196;52.970;6.954;2023-04-08T01:42:41;3.00;99.90
60353;DHT22;46196;52.970;6.954;2023-04-08T01:45:08;2.60;99.90
60353;DHT22;46196;52.970;6.954;2023-04-08T01:47:35;5.50;99.90
60353;DHT22;46196;52.970;6.954;2023-04-08T01:50:02;5.20;99.90
60353;DHT22;46196;52.970;6.954;2023-04-08T01:52:29;2.20;99.90
60353;DHT22;46196;52.970;6.954;2023-04-08T01:54:57;3.60;99.90
60353;DHT22;46196;52.970;6.954;2023-04-08T01:57:26;2.70;99.90
60353;DHT22;46196;52.970;6.954;2023-04-08T01:59:55;3.60;99.90
60353;DHT22;46196;52.970;6.954;2023-04-08T02:02:25;4.90;99.90
60353;DHT22;46196;52.970;6.954;2023-04-08T02:04:53;6.10;99.90
60353;DHT22;46196;52.970;6.954;2023-04-08T02:07:19;2.30;99.90
60353;DHT22;46196;52.970;6.954;2023-04-08T02:09:45;3.20;99.90
60353;DHT22;46196;52.970;6.954;2023-04-08T02:12:10;4.70;99.90
60353;DHT22;46196;52.970;6.954;2023-04-08T02:14:37;2.60;99.90
60353;DHT22;46196;52.970;6.954;2023-04-08T02:17:18;3.80;99.90
60353;DHT22;46196;52.970;6.954;2023-04-08T02:19:52;5.30;99.90
60353;DHT22;46196;52.970;6.954;2023-04-08T02:22:41;5.50;99.90
60353;DHT22;46196;52.970;6.954;2023-04-08T02:25:10;4.30;99.90
60353;DHT22;46196;52.970;6.954;2023-04-08T02:27:38;2.80;99.90
60353;DHT22;46196;52.970;6.954;2023-04-08T02:30:05;2.90;99.90
60353;DHT22;46196;52.970;6.954;2023-04-08T02:32:33;4.00;99.90
60353;DHT22;46196;52.970;6.954;2023-04-08T02:35:04;4.40;99.90
60353;DHT22;46196;52.970;6.954;2023-04-08T02:37:31;3.30;99.90
60353;DHT22;46196;52.970;6.954;2023-04-08T02:39:57;5.50;99.90
60353;DHT22;46196;52.970;6.954;2023-04-08T02:42:23;3.20;99.90
60353;DHT22;46196;52.970;6.954;2023-04-08T02:44:50;3.20;99.90
60353;DHT22;46196;52.970;6.954;2023-04-08T02:47:16;4.30;99.90
60353;DHT22;46196;52.970;6.954;2023-04-08T02:49:41;4.90;99.90
60353;DHT22;46196;52.970;6.954;2023-04-08T02:52:07;2.80;99.90
60353;DHT22;46196;52.970;6.954;2023-04-08T02:54:33;2.10;99.90
60353;DHT22;46196;52.970;6.954;2023-04-08T02:56:59;2.80;99.90
60353;DHT22;46196;52.970;6.954;2023-04-08T02:59:25;6.30;99.90
60353;DHT22;46196;52.970;6.954;2023-04-08T03:01:51;3.60;99.90
60353;DHT22;46196;52.970;6.954;2023-04-08T03:04:16;3.60;99.90
60353;DHT22;46196;52.970;6.954;2023-04-08T03:06:42;3.50;99.90
60353;DHT22;46196;52.970;6.954;2023-04-08T03:09:08;3.90;99.90
60353;DHT22;46196;52.970;6.954;2023-04-08T03:11:34;4.00;99.90
60353;DHT22;46196;52.970;6.954;2023-04-08T03:14:00;3.40;99.90
60353;DHT22;46196;52.970;6.954;2023-04-08T03:16:26;2.80;99.90
60353;DHT22;46196;52.970;6.954;2023-04-08T03:18:51;3.50;99.90
60353;DHT22;46196;52.970;6.954;2023-04-08T03:21:17;3.20;99.90
60353;DHT22;46196;52.970;6.954;2023-04-08T03:23:44;3.50;99.90
60353;DHT22;46196;52.970;6.954;2023-04-08T03:26:10;3.60;99.90
60353;DHT22;46196;52.970;6.954;2023-04-08T03:28:36;2.70;99.90
60353;DHT22;46196;52.970;6.954;2023-04-08T03:31:03;3.20;99.90
60353;DHT22;46196;52.970;6.954;2023-04-08T03:33:29;4.00;99.90
60353;DHT22;46196;52.970;6.954;2023-04-08T03:38:21;2.50;99.90
60353;DHT22;46196;52.970;6.954;2023-04-08T03:40:47;3.40;99.90
60353;DHT22;46196;52.970;6.954;2023-04-08T03:43:13;1.90;99.90
60353;DHT22;46196;52.970;6.954;2023-04-08T03:45:39;2.40;99.90
60353;DHT22;46196;52.970;6.954;2023-04-08T03:48:06;3.20;99.90
60353;DHT22;46196;52.970;6.954;2023-04-08T03:50:32;3.40;99.90
60353;DHT22;46196;52.970;6.954;2023-04-08T03:55:24;3.40;99.90
60353;DHT22;46196;52.970;6.954;2023-04-08T03:57:50;3.00;99.90
60353;DHT22;46196;52.970;6.954;2023-04-08T04:00:15;2.40;99.90
60353;DHT22;46196;52.970;6.954;2023-04-08T04:02:41;3.50;99.90
60353;DHT22;46196;52.970;6.954;2023-04-08T04:05:07;4.70;99.90
60353;DHT22;46196;52.970;6.954;2023-04-08T04:07:33;3.50;99.90
60353;DHT22;46196;52.970;6.954;2023-04-08T04:09:59;3.10;99.90
60353;DHT22;46196;52.970;6.954;2023-04-08T04:12:25;2.80;99.90
60353;DHT22;46196;52.970;6.954;2023-04-08T04:14:51;2.50;99.90
60353;DHT22;46196;52.970;6.954;2023-04-08T04:17:17;2.30;99.90
60353;DHT22;46196;52.970;6.954;2023-04-08T04:19:42;3.60;99.90
60353;DHT22;46196;52.970;6.954;2023-04-08T04:22:08;2.50;99.90
60353;DHT22;46196;52.970;6.954;2023-04-08T04:24:34;3.60;99.90
60353;DHT22;46196;52.970;6.954;2023-04-08T04:27:00;3.50;99.90
60353;DHT22;46196;52.970;6.954;2023-04-08T04:29:26;6.40;99.90
60353;DHT22;46196;52.970;6.954;2023-04-08T04:31:51;3.70;99.90
60353;DHT22;46196;52.970;6.954;2023-04-08T04:34:17;3.70;99.90
60353;DHT22;46196;52.970;6.954;2023-04-08T04:36:43;3.20;99.90
60353;DHT22;46196;52.970;6.954;2023-04-08T04:39:09;5.40;99.90
60353;DHT22;46196;52.970;6.954;2023-04-08T04:41:35;3.80;99.90
60353;DHT22;46196;52.970;6.954;2023-04-08T04:44:05;3.80;99.90
60353;DHT22;46196;52.970;6.954;2023-04-08T04:46:34;3.30;99.90
60353;DHT22;46196;52.970;6.954;2023-04-08T04:49:00;5.30;99.90
60353;DHT22;46196;52.970;6.954;2023-04-08T04:51:26;2.70;99.90
60353;DHT22;46196;52.970;6.954;2023-04-08T04:53:52;4.20;99.90
60353;DHT22;46196;52.970;6.954;2023-04-08T04:56:18;6.40;99.90
60353;DHT22;46196;52.970;6.954;2023-04-08T04:58:45;3.70;99.90
60353;DHT22;46196;52.970;6.954;2023-04-08T05:01:14;4.30;99.90
60353;DHT22;46196;52.970;6.954;2023-04-08T05:03:40;4.40;99.90
60353;DHT22;46196;52.970;6.954;2023-04-08T05:06:06;3.30;99.90
60353;DHT22;46196;52.970;6.954;2023-04-08T05:08:32;2.90;99.90
60353;DHT22;46196;52.970;6.954;2023-04-08T05:10:58;6.30;99.90
60353;DHT22;46196;52.970;6.954;2023-04-08T05:13:31;4.20;99.90
60353;DHT22;46196;52.970;6.954;2023-04-08T05:16:00;4.20;99.90
60353;DHT22;46196;52.970;6.954;2023-04-08T05:18:27;5.80;99.90
60353;DHT22;46196;52.970;6.954;2023-04-08T05:20:52;4.20;99.90
60353;DHT22;46196;52.970;6.954;2023-04-08T05:23:18;6.70;99.90
60353;DHT22;46196;52.970;6.954;2023-04-08T05:25:44;4.30;99.90
60353;DHT22;46196;52.970;6.954;2023-04-08T05:28:10;4.40;99.90
60353;DHT22;46196;52.970;6.954;2023-04-08T05:30:37;4.40;99.90
60353;DHT22;46196;52.970;6.954;2023-04-08T05:33:02;5.60;99.90
60353;DHT22;46196;52.970;6.954;2023-04-08T05:35:28;4.50;99.90
60353;DHT22;46196;52.970;6.954;2023-04-08T05:37:54;3.50;99.90
60353;DHT22;46196;52.970;6.954;2023-04-08T05:40:20;5.10;99.90
60353;DHT22;46196;52.970;6.954;2023-04-08T05:42:46;4.50;99.90
60353;DHT22;46196;52.970;6.954;2023-04-08T05:45:15;5.80;99.90
60353;DHT22;46196;52.970;6.954;2023-04-08T05:47:42;4.00;99.90
60353;DHT22;46196;52.970;6.954;2023-04-08T05:50:08;3.70;99.90
60353;DHT22;46196;52.970;6.954;2023-04-08T05:52:35;3.00;99.90
60353;DHT22;46196;52.970;6.954;2023-04-08T05:55:04;4.50;99.90
60353;DHT22;46196;52.970;6.954;2023-04-08T05:57:30;3.50;99.90
60353;DHT22;46196;52.970;6.954;2023-04-08T05:59:56;3.20;99.90
60353;DHT22;46196;52.970;6.954;2023-04-08T06:02:27;4.50;99.90
60353;DHT22;46196;52.970;6.954;2023-04-08T06:04:53;4.50;99.90
60353;DHT22;46196;52.970;6.954;2023-04-08T06:07:19;3.90;99.90
60353;DHT22;46196;52.970;6.954;2023-04-08T06:09:45;4.50;99.90
60353;DHT22;46196;52.970;6.954;2023-04-08T06:12:11;4.60;99.90
60353;DHT22;46196;52.970;6.954;2023-04-08T06:14:37;4.60;99.90
60353;DHT22;46196;52.970;6.954;2023-04-08T06:17:03;4.70;99.90
60353;DHT22;46196;52.970;6.954;2023-04-08T06:19:29;4.70;99.90
60353;DHT22;46196;52.970;6.954;2023-04-08T06:21:55;4.80;99.90
60353;DHT22;46196;52.970;6.954;2023-04-08T06:24:25;4.80;99.90
60353;DHT22;46196;52.970;6.954;2023-04-08T06:26:52;4.90;99.90
60353;DHT22;46196;52.970;6.954;2023-04-08T06:29:19;4.90;99.90
60353;DHT22;46196;52.970;6.954;2023-04-08T06:31:45;5.00;99.90
60353;DHT22;46196;52.970;6.954;2023-04-08T06:34:11;7.00;99.90
60353;DHT22;46196;52.970;6.954;2023-04-08T06:36:37;5.30;99.90
60353;DHT22;46196;52.970;6.954;2023-04-08T06:39:03;5.20;99.90
60353;DHT22;46196;52.970;6.954;2023-04-08T06:41:29;5.40;99.90
60353;DHT22;46196;52.970;6.954;2023-04-08T06:43:55;5.10;99.90
60353;DHT22;46196;52.970;6.954;2023-04-08T06:46:21;5.40;99.90
60353;DHT22;46196;52.970;6.954;2023-04-08T06:48:47;5.50;99.90
60353;DHT22;46196;52.970;6.954;2023-04-08T06:51:13;5.60;99.90
60353;DHT22;46196;52.970;6.954;2023-04-08T06:53:39;5.60;99.90
60353;DHT22;46196;52.970;6.954;2023-04-08T06:56:05;5.70;99.90
60353;DHT22;46196;52.970;6.954;2023-04-08T06:58:31;5.80;99.90
60353;DHT22;46196;52.970;6.954;2023-04-08T07:00:58;5.90;99.90
60353;DHT22;46196;52.970;6.954;2023-04-08T07:03:24;6.00;99.90
60353;DHT22;46196;52.970;6.954;2023-04-08T07:05:51;6.00;99.90
60353;DHT22;46196;52.970;6.954;2023-04-08T07:08:17;6.20;99.90
60353;DHT22;46196;52.970;6.954;2023-04-08T07:10:43;6.30;99.90
60353;DHT22;46196;52.970;6.954;2023-04-08T07:13:09;6.40;99.90
60353;DHT22;46196;52.970;6.954;2023-04-08T07:15:35;6.50;99.90
60353;DHT22;46196;52.970;6.954;2023-04-08T07:18:01;6.60;99.90
60353;DHT22;46196;52.970;6.954;2023-04-08T07:20:29;6.70;99.90
60353;DHT22;46196;52.970;6.954;2023-04-08T07:22:55;6.80;99.90
60353;DHT22;46196;52.970;6.954;2023-04-08T07:25:21;6.90;99.90
60353;DHT22;46196;52.970;6.954;2023-04-08T07:27:46;7.00;99.90
60353;DHT22;46196;52.970;6.954;2023-04-08T07:30:12;7.10;99.90
60353;DHT22;46196;52.970;6.954;2023-04-08T07:32:38;7.20;99.90
60353;DHT22;46196;52.970;6.954;2023-04-08T07:35:04;7.30;99.90
60353;DHT22;46196;52.970;6.954;2023-04-08T07:37:31;7.50;99.90
60353;DHT22;46196;52.970;6.954;2023-04-08T07:39:57;7.60;99.90
60353;DHT22;46196;52.970;6.954;2023-04-08T07:42:22;7.80;99.90
60353;DHT22;46196;52.970;6.954;2023-04-08T07:44:48;7.90;99.90
60353;DHT22;46196;52.970;6.954;2023-04-08T07:47:14;7.90;99.90
60353;DHT22;46196;52.970;6.954;2023-04-08T07:49:41;8.20;99.90
60353;DHT22;46196;52.970;6.954;2023-04-08T07:52:06;8.40;99.90
60353;DHT22;46196;52.970;6.954;2023-04-08T07:54:32;8.50;99.90
60353;DHT22;46196;52.970;6.954;2023-04-08T07:57:01;8.50;99.90
60353;DHT22;46196;52.970;6.954;2023-04-08T07:59:27;8.50;99.90
60353;DHT22;46196;52.970;6.954;2023-04-08T08:01:53;8.50;99.90
60353;DHT22;46196;52.970;6.954;2023-04-08T08:04:19;8.40;99.90
60353;DHT22;46196;52.970;6.954;2023-04-08T08:06:46;8.30;99.90
60353;DHT22;46196;52.970;6.954;2023-04-08T08:09:12;8.20;99.90
60353;DHT22;46196;52.970;6.954;2023-04-08T08:11:38;8.10;99.90
60353;DHT22;46196;52.970;6.954;2023-04-08T08:14:04;8.10;99.90
60353;DHT22;46196;52.970;6.954;2023-04-08T08:16:30;8.00;99.90
60353;DHT22;46196;52.970;6.954;2023-04-08T08:18:57;8.00;99.90
60353;DHT22;46196;52.970;6.954;2023-04-08T08:21:22;7.80;99.90
60353;DHT22;46196;52.970;6.954;2023-04-08T08:23:50;7.80;99.90
60353;DHT22;46196;52.970;6.954;2023-04-08T08:26:16;7.70;99.90
60353;DHT22;46196;52.970;6.954;2023-04-08T08:28:42;7.80;99.90
60353;DHT22;46196;52.970;6.954;2023-04-08T08:31:08;7.80;99.90
60353;DHT22;46196;52.970;6.954;2023-04-08T08:33:34;7.80;99.90
60353;DHT22;46196;52.970;6.954;2023-04-08T08:36:00;7.80;99.90
60353;DHT22;46196;52.970;6.954;2023-04-08T08:38:26;7.80;99.90
60353;DHT22;46196;52.970;6.954;2023-04-08T08:40:57;7.70;99.90
60353;DHT22;46196;52.970;6.954;2023-04-08T08:43:28;7.70;99.90
60353;DHT22;46196;52.970;6.954;2023-04-08T08:45:54;7.70;99.90
60353;DHT22;46196;52.970;6.954;2023-04-08T08:48:20;7.70;99.90
60353;DHT22;46196;52.970;6.954;2023-04-08T08:50:46;7.80;99.90
60353;DHT22;46196;52.970;6.954;2023-04-08T08:53:12;7.90;99.90
60353;DHT22;46196;52.970;6.954;2023-04-08T08:55:37;7.90;99.90
60353;DHT22;46196;52.970;6.954;2023-04-08T08:58:04;8.00;99.90
60353;DHT22;46196;52.970;6.954;2023-04-08T09:03:20;8.20;99.90
60353;DHT22;46196;52.970;6.954;2023-04-08T09:08:35;8.40;99.90
60353;DHT22;46196;52.970;6.954;2023-04-08T09:11:18;8.50;99.90
60353;DHT22;46196;52.970;6.954;2023-04-08T09:13:45;8.60;99.90
60353;DHT22;46196;52.970;6.954;2023-04-08T09:16:15;8.70;99.90
60353;DHT22;46196;52.970;6.954;2023-04-08T09:18:43;8.70;99.90
60353;DHT22;46196;52.970;6.954;2023-04-08T09:21:12;8.70;99.90
60353;DHT22;46196;52.970;6.954;2023-04-08T09:23:48;8.70;99.90
60353;DHT22;46196;52.970;6.954;2023-04-08T09:26:20;8.80;99.90
60353;DHT22;46196;52.970;6.954;2023-04-08T09:29:04;8.70;99.90
60353;DHT22;46196;52.970;6.954;2023-04-08T09:31:33;8.70;99.90
60353;DHT22;46196;52.970;6.954;2023-04-08T09:36:34;8.80;99.90
60353;DHT22;46196;52.970;6.954;2023-04-08T09:39:00;8.90;99.90
60353;DHT22;46196;52.970;6.954;2023-04-08T09:41:27;9.00;99.90
60353;DHT22;46196;52.970;6.954;2023-04-08T09:43:54;9.10;99.90
60353;DHT22;46196;52.970;6.954;2023-04-08T09:51:53;11.00;99.90
60353;DHT22;46196;52.970;6.954;2023-04-08T09:54:35;9.30;99.90
60353;DHT22;46196;52.970;6.954;2023-04-08T09:57:09;9.50;99.90
60353;DHT22;46196;52.970;6.954;2023-04-08T09:59:44;9.50;99.90
60353;DHT22;46196;52.970;6.954;2023-04-08T10:02:16;9.60;99.90
60353;DHT22;46196;52.970;6.954;2023-04-08T10:04:44;9.80;99.90
60353;DHT22;46196;52.970;6.954;2023-04-08T10:07:13;9.90;99.90
60353;DHT22;46196;52.970;6.954;2023-04-08T10:09:40;10.00;99.90
60353;DHT22;46196;52.970;6.954;2023-04-08T10:12:08;10.10;99.90
60353;DHT22;46196;52.970;6.954;2023-04-08T10:14:34;10.20;99.90
60353;DHT22;46196;52.970;6.954;2023-04-08T10:17:24;10.20;99.90
60353;DHT22;46196;52.970;6.954;2023-04-08T10:19:52;10.30;99.90
60353;DHT22;46196;52.970;6.954;2023-04-08T10:27:43;10.30;99.90
60353;DHT22;46196;52.970;6.954;2023-04-08T10:32:54;10.30;99.90
60353;DHT22;46196;52.970;6.954;2023-04-08T10:35:34;10.30;99.90
60353;DHT22;46196;52.970;6.954;2023-04-08T10:38:00;10.40;99.90
60353;DHT22;46196;52.970;6.954;2023-04-08T10:40:26;10.40;99.90
60353;DHT22;46196;52.970;6.954;2023-04-08T10:42:58;10.40;99.90
60353;DHT22;46196;52.970;6.954;2023-04-08T10:45:24;10.40;99.90
60353;DHT22;46196;52.970;6.954;2023-04-08T10:47:50;10.50;99.90
60353;DHT22;46196;52.970;6.954;2023-04-08T10:50:19;10.50;99.90
60353;DHT22;46196;52.970;6.954;2023-04-08T10:52:49;10.40;99.90
60353;DHT22;46196;52.970;6.954;2023-04-08T10:55:25;10.30;99.90
60353;DHT22;46196;52.970;6.954;2023-04-08T10:57:51;10.70;99.90
60353;DHT22;46196;52.970;6.954;2023-04-08T11:00:31;10.40;99.90
60353;DHT22;46196;52.970;6.954;2023-04-08T11:03:05;10.40;99.90
60353;DHT22;46196;52.970;6.954;2023-04-08T11:05:32;10.30;99.90
60353;DHT22;46196;52.970;6.954;2023-04-08T11:07:59;10.30;99.90
60353;DHT22;46196;52.970;6.954;2023-04-08T11:10:26;10.30;99.90
60353;DHT22;46196;52.970;6.954;2023-04-08T11:12:56;10.30;99.90
60353;DHT22;46196;52.970;6.954;2023-04-08T11:15:26;10.40;99.90
60353;DHT22;46196;52.970;6.954;2023-04-08T11:17:53;10.40;99.90
60353;DHT22;46196;52.970;6.954;2023-04-08T11:20:20;10.40;99.90
60353;DHT22;46196;52.970;6.954;2023-04-08T11:22:47;10.40;99.90
60353;DHT22;46196;52.970;6.954;2023-04-08T11:25:13;10.00;99.90
60353;DHT22;46196;52.970;6.954;2023-04-08T11:27:39;10.40;99.90
60353;DHT22;46196;52.970;6.954;2023-04-08T11:30:08;10.40;99.90
60353;DHT22;46196;52.970;6.954;2023-04-08T11:32:35;10.40;99.90
60353;DHT22;46196;52.970;6.954;2023-04-08T11:35:04;10.40;99.90
60353;DHT22;46196;52.970;6.954;2023-04-08T11:37:40;10.30;99.90
60353;DHT22;46196;52.970;6.954;2023-04-08T11:40:08;10.40;99.90
60353;DHT22;46196;52.970;6.954;2023-04-08T11:42:34;10.50;99.90
60353;DHT22;46196;52.970;6.954;2023-04-08T11:45:00;10.40;99.90
60353;DHT22;46196;52.970;6.954;2023-04-08T11:47:31;10.40;99.90
60353;DHT22;46196;52.970;6.954;2023-04-08T11:50:01;10.40;99.90
60353;DHT22;46196;52.970;6.954;2023-04-08T11:52:47;10.30;99.90
60353;DHT22;46196;52.970;6.954;2023-04-08T11:57:53;10.30;99.90
60353;DHT22;46196;52.970;6.954;2023-04-08T12:00:20;10.30;99.90
60353;DHT22;46196;52.970;6.954;2023-04-08T12:02:46;10.20;99.90
60353;DHT22;46196;52.970;6.954;2023-04-08T12:05:16;10.20;99.90
60353;DHT22;46196;52.970;6.954;2023-04-08T12:07:42;10.60;99.90
60353;DHT22;46196;52.970;6.954;2023-04-08T12:10:09;10.10;99.90
60353;DHT22;46196;52.970;6.954;2023-04-08T12:12:36;10.10;99.90
60353;DHT22;46196;52.970;6.954;2023-04-08T12:15:01;10.10;99.90
60353;DHT22;46196;52.970;6.954;2023-04-08T12:17:27;10.20;99.90
60353;DHT22;46196;52.970;6.954;2023-04-08T12:19:56;10.20;99.90
60353;DHT22;46196;52.970;6.954;2023-04-08T12:22:28;10.30;99.90
60353;DHT22;46196;52.970;6.954;2023-04-08T12:24:54;10.30;99.90
60353;DHT22;46196;52.970;6.954;2023-04-08T12:27:20;10.30;99.90
60353;DHT22;46196;52.970;6.954;2023-04-08T12:29:46;10.30;99.90
60353;DHT22;46196;52.970;6.954;2023-04-08T12:32:14;10.40;99.90
60353;DHT22;46196;52.970;6.954;2023-04-08T12:34:40;10.30;99.90
60353;DHT22;46196;52.970;6.954;2023-04-08T12:37:06;10.40;99.90
60353;DHT22;46196;52.970;6.954;2023-04-08T12:39:32;10.40;99.90
60353;DHT22;46196;52.970;6.954;2023-04-08T12:41:58;10.40;99.90
60353;DHT22;46196;52.970;6.954;2023-04-08T12:44:24;10.40;99.90
60353;DHT22;46196;52.970;6.954;2023-04-08T12:46:49;10.40;99.90
60353;DHT22;46196;52.970;6.954;2023-04-08T12:49:15;10.40;99.90
60353;DHT22;46196;52.970;6.954;2023-04-08T12:51:41;10.50;99.90
60353;DHT22;46196;52.970;6.954;2023-04-08T12:54:07;10.60;99.90
60353;DHT22;46196;52.970;6.954;2023-04-08T12:56:33;10.60;99.90
60353;DHT22;46196;52.970;6.954;2023-04-08T12:58:59;10.70;99.90
60353;DHT22;46196;52.970;6.954;2023-04-08T13:01:26;10.70;99.90
60353;DHT22;46196;52.970;6.954;2023-04-08T13:03:52;10.70;99.90
60353;DHT22;46196;52.970;6.954;2023-04-08T13:06:18;10.80;99.90
60353;DHT22;46196;52.970;6.954;2023-04-08T13:08:44;10.90;99.90
60353;DHT22;46196;52.970;6.954;2023-04-08T13:11:10;10.40;99.90
60353;DHT22;46196;52.970;6.954;2023-04-08T13:13:36;11.00;99.90
60353;DHT22;46196;52.970;6.954;2023-04-08T13:16:02;11.00;99.90
60353;DHT22;46196;52.970;6.954;2023-04-08T13:18:28;11.00;99.90
60353;DHT22;46196;52.970;6.954;2023-04-08T13:20:54;11.00;99.90
60353;DHT22;46196;52.970;6.954;2023-04-08T13:23:20;11.00;99.90
60353;DHT22;46196;52.970;6.954;2023-04-08T13:25:46;11.00;99.90
60353;DHT22;46196;52.970;6.954;2023-04-08T13:28:12;11.10;99.90
60353;DHT22;46196;52.970;6.954;2023-04-08T13:30:38;11.10;99.90
60353;DHT22;46196;52.970;6.954;2023-04-08T13:33:05;11.20;99.90
60353;DHT22;46196;52.970;6.954;2023-04-08T13:35:31;11.20;99.90
60353;DHT22;46196;52.970;6.954;2023-04-08T13:37:57;11.30;99.90
60353;DHT22;46196;52.970;6.954;2023-04-08T13:40:23;11.30;99.90
60353;DHT22;46196;52.970;6.954;2023-04-08T13:42:48;11.40;99.90
60353;DHT22;46196;52.970;6.954;2023-04-08T13:45:14;11.50;99.90
60353;DHT22;46196;52.970;6.954;2023-04-08T13:47:40;11.60;99.90
60353;DHT22;46196;52.970;6.954;2023-04-08T13:50:06;11.60;99.90
60353;DHT22;46196;52.970;6.954;2023-04-08T13:52:32;11.60;99.90
60353;DHT22;46196;52.970;6.954;2023-04-08T13:54:58;11.70;99.90
60353;DHT22;46196;52.970;6.954;2023-04-08T13:57:24;10.80;99.90
60353;DHT22;46196;52.970;6.954;2023-04-08T13:59:50;11.80;99.90
60353;DHT22;46196;52.970;6.954;2023-04-08T14:02:16;11.30;99.90
60353;DHT22;46196;52.970;6.954;2023-04-08T14:04:42;11.90;99.90
60353;DHT22;46196;52.970;6.954;2023-04-08T14:07:13;12.00;99.90
60353;DHT22;46196;52.970;6.954;2023-04-08T14:09:39;12.00;99.90
60353;DHT22;46196;52.970;6.954;2023-04-08T14:12:05;12.00;99.90
60353;DHT22;46196;52.970;6.954;2023-04-08T14:14:31;12.00;99.90
60353;DHT22;46196;52.970;6.954;2023-04-08T14:16:56;12.10;99.90
60353;DHT22;46196;52.970;6.954;2023-04-08T14:19:22;12.10;99.90
60353;DHT22;46196;52.970;6.954;2023-04-08T14:21:48;12.10;99.90
60353;DHT22;46196;52.970;6.954;2023-04-08T14:24:14;12.20;99.90
60353;DHT22;46196;52.970;6.954;2023-04-08T14:26:41;12.20;99.90
60353;DHT22;46196;52.970;6.954;2023-04-08T14:29:07;12.20;99.90
60353;DHT22;46196;52.970;6.954;2023-04-08T14:31:33;12.20;99.90
60353;DHT22;46196;52.970;6.954;2023-04-08T14:34:00;12.10;99.90
60353;DHT22;46196;52.970;6.954;2023-04-08T14:36:26;12.20;99.90
60353;DHT22;46196;52.970;6.954;2023-04-08T14:38:53;12.20;99.90
60353;DHT22;46196;52.970;6.954;2023-04-08T14:41:19;12.20;99.90
60353;DHT22;46196;52.970;6.954;2023-04-08T14:43:46;12.30;99.90
60353;DHT22;46196;52.970;6.954;2023-04-08T14:46:12;12.40;99.90
60353;DHT22;46196;52.970;6.954;2023-04-08T14:48:38;12.50;99.90
60353;DHT22;46196;52.970;6.954;2023-04-08T14:51:04;12.60;99.90
60353;DHT22;46196;52.970;6.954;2023-04-08T14:53:30;12.60;99.90
60353;DHT22;46196;52.970;6.954;2023-04-08T14:55:56;12.70;99.90
60353;DHT22;46196;52.970;6.954;2023-04-08T14:58:23;12.60;99.90
60353;DHT22;46196;52.970;6.954;2023-04-08T15:00:48;13.30;99.90
60353;DHT22;46196;52.970;6.954;2023-04-08T15:03:14;12.60;99.90
60353;DHT22;46196;52.970;6.954;2023-04-08T15:05:41;12.60;99.90
60353;DHT22;46196;52.970;6.954;2023-04-08T15:08:07;12.60;99.90
60353;DHT22;46196;52.970;6.954;2023-04-08T15:10:33;12.60;99.90
60353;DHT22;46196;52.970;6.954;2023-04-08T15:12:59;12.60;99.90
60353;DHT22;46196;52.970;6.954;2023-04-08T15:15:25;13.90;99.90
60353;DHT22;46196;52.970;6.954;2023-04-08T15:17:51;12.60;99.90
60353;DHT22;46196;52.970;6.954;2023-04-08T15:20:17;12.70;99.90
60353;DHT22;46196;52.970;6.954;2023-04-08T15:22:46;12.80;99.90
60353;DHT22;46196;52.970;6.954;2023-04-08T15:25:12;12.80;99.90
60353;DHT22;46196;52.970;6.954;2023-04-08T15:27:38;12.90;99.90
60353;DHT22;46196;52.970;6.954;2023-04-08T15:30:05;12.90;99.90
60353;DHT22;46196;52.970;6.954;2023-04-08T15:32:32;13.70;99.90
60353;DHT22;46196;52.970;6.954;2023-04-08T15:34:58;13.60;99.90
60353;DHT22;46196;52.970;6.954;2023-04-08T15:37:24;12.80;99.90
60353;DHT22;46196;52.970;6.954;2023-04-08T15:39:50;12.80;99.90
60353;DHT22;46196;52.970;6.954;2023-04-08T15:42:20;12.80;99.90
60353;DHT22;46196;52.970;6.954;2023-04-08T15:44:46;12.70;99.90
60353;DHT22;46196;52.970;6.954;2023-04-08T15:47:12;12.70;99.90
60353;DHT22;46196;52.970;6.954;2023-04-08T15:49:39;12.80;99.90
60353;DHT22;46196;52.970;6.954;2023-04-08T15:52:05;12.80;99.90
60353;DHT22;46196;52.970;6.954;2023-04-08T15:54:33;12.80;99.90
60353;DHT22;46196;52.970;6.954;2023-04-08T15:56:59;12.70;99.90
60353;DHT22;46196;52.970;6.954;2023-04-08T15:59:27;11.90;99.90
60353;DHT22;46196;52.970;6.954;2023-04-08T16:01:53;12.60;99.90
60353;DHT22;46196;52.970;6.954;2023-04-08T16:04:19;12.50;99.90
60353;DHT22;46196;52.970;6.954;2023-04-08T16:06:45;12.40;99.90
60353;DHT22;46196;52.970;6.954;2023-04-08T16:09:11;12.30;99.90
60353;DHT22;46196;52.970;6.954;2023-04-08T16:11:37;12.20;99.90
60353;DHT22;46196;52.970;6.954;2023-04-08T16:14:03;12.60;99.90
60353;DHT22;46196;52.970;6.954;2023-04-08T16:16:30;12.10;99.90